Fort William, United Kingdom
Current Conditions -  °F | °C
As of 1:50 PM on Thursday 30 Oct 2014 (Local Time) from EGPE Reporting Station
Broken Clouds Broken Clouds  
Wind Chill:   Ceiling: 2800
Heat Index:   Visibility: 6mi
Dew Point:   Wind: 3mph
Humidity: 100%   Direction: 230°SW
Pressure: 29.85"   Gusts: NA
Location:  56.82°N, 5.11°W
Report Text: EGPE 301350Z 23003KT 9999 FEW002 SCT016 BKN028 09/09 Q1011
Loading
Personal Weather Stations






























Interactive Weather Map
Tropical Storm Tracking
New forecast layout! Learn more

10-Day Weather Forecast

Advertisements
Track Severe Weather on mobile